sensor_id;sensor_type;location;lat;lon;timestamp;P1;durP1;ratioP1;P2;durP2;ratioP2
19280;SDS011;9774;52.034;5.342;2022-10-16T00:01:18;3.00;;;1.05;;
19280;SDS011;9774;52.034;5.342;2022-10-16T00:03:47;2.13;;;1.00;;
19280;SDS011;9774;52.034;5.342;2022-10-16T00:06:17;2.00;;;0.90;;
19280;SDS011;9774;52.034;5.342;2022-10-16T00:08:46;2.85;;;0.90;;
19280;SDS011;9774;52.034;5.342;2022-10-16T00:11:15;1.60;;;0.70;;
19280;SDS011;9774;52.034;5.342;2022-10-16T00:13:44;1.45;;;1.00;;
19280;SDS011;9774;52.034;5.342;2022-10-16T00:16:16;2.03;;;0.88;;
19280;SDS011;9774;52.034;5.342;2022-10-16T00:18:44;2.65;;;0.82;;
19280;SDS011;9774;52.034;5.342;2022-10-16T00:21:12;3.03;;;1.42;;
19280;SDS011;9774;52.034;5.342;2022-10-16T00:23:42;4.15;;;1.17;;
19280;SDS011;9774;52.034;5.342;2022-10-16T00:26:10;1.88;;;0.88;;
19280;SDS011;9774;52.034;5.342;2022-10-16T00:28:39;5.53;;;1.48;;
19280;SDS011;9774;52.034;5.342;2022-10-16T00:31:07;2.17;;;1.13;;
19280;SDS011;9774;52.034;5.342;2022-10-16T00:33:37;1.70;;;1.27;;
19280;SDS011;9774;52.034;5.342;2022-10-16T00:36:06;4.90;;;1.48;;
19280;SDS011;9774;52.034;5.342;2022-10-16T00:38:36;3.50;;;1.55;;
19280;SDS011;9774;52.034;5.342;2022-10-16T00:41:06;2.50;;;1.48;;
19280;SDS011;9774;52.034;5.342;2022-10-16T00:43:37;3.22;;;1.65;;
19280;SDS011;9774;52.034;5.342;2022-10-16T00:46:10;4.45;;;2.00;;
19280;SDS011;9774;52.034;5.342;2022-10-16T00:48:42;2.13;;;1.83;;
19280;SDS011;9774;52.034;5.342;2022-10-16T00:51:14;2.75;;;2.03;;
19280;SDS011;9774;52.034;5.342;2022-10-16T00:53:44;3.17;;;1.90;;
19280;SDS011;9774;52.034;5.342;2022-10-16T00:56:13;3.70;;;2.20;;
19280;SDS011;9774;52.034;5.342;2022-10-16T00:58:40;3.80;;;2.55;;
19280;SDS011;9774;52.034;5.342;2022-10-16T01:01:07;5.72;;;2.30;;
19280;SDS011;9774;52.034;5.342;2022-10-16T01:03:36;4.63;;;2.25;;
19280;SDS011;9774;52.034;5.342;2022-10-16T01:06:14;10.77;;;2.15;;
19280;SDS011;9774;52.034;5.342;2022-10-16T01:08:52;2.63;;;1.85;;
19280;SDS011;9774;52.034;5.342;2022-10-16T01:11:30;2.75;;;1.90;;
19280;SDS011;9774;52.034;5.342;2022-10-16T01:14:05;3.15;;;2.10;;
19280;SDS011;9774;52.034;5.342;2022-10-16T01:16:38;2.95;;;1.67;;
19280;SDS011;9774;52.034;5.342;2022-10-16T01:19:12;3.78;;;2.05;;
19280;SDS011;9774;52.034;5.342;2022-10-16T01:21:46;4.90;;;2.03;;
19280;SDS011;9774;52.034;5.342;2022-10-16T01:24:17;3.10;;;2.10;;
19280;SDS011;9774;52.034;5.342;2022-10-16T01:29:47;2.17;;;1.40;;
19280;SDS011;9774;52.034;5.342;2022-10-16T01:32:19;3.03;;;1.58;;
19280;SDS011;9774;52.034;5.342;2022-10-16T01:34:50;2.63;;;1.63;;
19280;SDS011;9774;52.034;5.342;2022-10-16T01:37:27;2.35;;;1.52;;
19280;SDS011;9774;52.034;5.342;2022-10-16T01:39:59;3.08;;;1.92;;
19280;SDS011;9774;52.034;5.342;2022-10-16T01:42:34;2.45;;;1.77;;
19280;SDS011;9774;52.034;5.342;2022-10-16T01:45:04;4.20;;;1.52;;
19280;SDS011;9774;52.034;5.342;2022-10-16T01:47:33;2.47;;;1.67;;
19280;SDS011;9774;52.034;5.342;2022-10-16T01:50:02;2.60;;;1.60;;
19280;SDS011;9774;52.034;5.342;2022-10-16T01:52:32;2.60;;;1.67;;
19280;SDS011;9774;52.034;5.342;2022-10-16T01:55:02;5.07;;;1.98;;
19280;SDS011;9774;52.034;5.342;2022-10-16T01:57:33;4.47;;;1.67;;
19280;SDS011;9774;52.034;5.342;2022-10-16T02:00:05;3.95;;;1.40;;
19280;SDS011;9774;52.034;5.342;2022-10-16T02:02:36;2.90;;;2.00;;
19280;SDS011;9774;52.034;5.342;2022-10-16T02:05:08;3.40;;;1.55;;
19280;SDS011;9774;52.034;5.342;2022-10-16T02:07:41;2.35;;;1.60;;
19280;SDS011;9774;52.034;5.342;2022-10-16T02:10:08;2.00;;;1.42;;
19280;SDS011;9774;52.034;5.342;2022-10-16T02:12:38;2.00;;;1.25;;
19280;SDS011;9774;52.034;5.342;2022-10-16T02:15:09;4.90;;;1.58;;
19280;SDS011;9774;52.034;5.342;2022-10-16T02:17:37;3.05;;;1.30;;
19280;SDS011;9774;52.034;5.342;2022-10-16T02:20:05;2.92;;;1.40;;
19280;SDS011;9774;52.034;5.342;2022-10-16T02:22:34;2.25;;;1.20;;
19280;SDS011;9774;52.034;5.342;2022-10-16T02:25:06;3.35;;;1.35;;
19280;SDS011;9774;52.034;5.342;2022-10-16T02:27:38;3.85;;;1.80;;
19280;SDS011;9774;52.034;5.342;2022-10-16T02:30:13;3.42;;;1.50;;
19280;SDS011;9774;52.034;5.342;2022-10-16T02:32:45;3.42;;;1.17;;
19280;SDS011;9774;52.034;5.342;2022-10-16T02:35:15;3.60;;;1.42;;
19280;SDS011;9774;52.034;5.342;2022-10-16T02:37:44;1.95;;;1.25;;
19280;SDS011;9774;52.034;5.342;2022-10-16T02:40:12;3.05;;;1.42;;
19280;SDS011;9774;52.034;5.342;2022-10-16T02:42:42;2.03;;;1.58;;
19280;SDS011;9774;52.034;5.342;2022-10-16T02:45:10;2.17;;;1.80;;
19280;SDS011;9774;52.034;5.342;2022-10-16T02:47:38;2.90;;;1.98;;
19280;SDS011;9774;52.034;5.342;2022-10-16T02:50:05;2.60;;;2.00;;
19280;SDS011;9774;52.034;5.342;2022-10-16T02:52:33;1.90;;;1.75;;
19280;SDS011;9774;52.034;5.342;2022-10-16T02:55:00;2.33;;;1.50;;
19280;SDS011;9774;52.034;5.342;2022-10-16T02:57:28;2.97;;;2.28;;
19280;SDS011;9774;52.034;5.342;2022-10-16T02:59:58;2.75;;;1.52;;
19280;SDS011;9774;52.034;5.342;2022-10-16T03:02:25;1.75;;;1.40;;
19280;SDS011;9774;52.034;5.342;2022-10-16T03:04:52;3.50;;;1.13;;
19280;SDS011;9774;52.034;5.342;2022-10-16T03:07:20;1.80;;;1.33;;
19280;SDS011;9774;52.034;5.342;2022-10-16T03:09:47;5.03;;;1.40;;
19280;SDS011;9774;52.034;5.342;2022-10-16T03:12:14;2.33;;;1.30;;
19280;SDS011;9774;52.034;5.342;2022-10-16T03:14:41;3.35;;;1.33;;
19280;SDS011;9774;52.034;5.342;2022-10-16T03:17:10;2.65;;;1.42;;
19280;SDS011;9774;52.034;5.342;2022-10-16T03:19:38;1.42;;;1.13;;
19280;SDS011;9774;52.034;5.342;2022-10-16T03:22:05;2.25;;;1.10;;
19280;SDS011;9774;52.034;5.342;2022-10-16T03:24:33;3.17;;;1.42;;
19280;SDS011;9774;52.034;5.342;2022-10-16T03:27:00;1.85;;;1.10;;
19280;SDS011;9774;52.034;5.342;2022-10-16T03:29:28;2.20;;;1.10;;
19280;SDS011;9774;52.034;5.342;2022-10-16T03:31:55;1.70;;;1.30;;
19280;SDS011;9774;52.034;5.342;2022-10-16T03:34:24;2.33;;;1.58;;
19280;SDS011;9774;52.034;5.342;2022-10-16T03:36:51;13.05;;;1.80;;
19280;SDS011;9774;52.034;5.342;2022-10-16T03:39:19;4.60;;;1.80;;
19280;SDS011;9774;52.034;5.342;2022-10-16T03:41:46;5.25;;;1.45;;
19280;SDS011;9774;52.034;5.342;2022-10-16T03:44:13;2.28;;;1.40;;
19280;SDS011;9774;52.034;5.342;2022-10-16T03:46:40;2.17;;;1.60;;
19280;SDS011;9774;52.034;5.342;2022-10-16T03:49:08;2.72;;;1.92;;
19280;SDS011;9774;52.034;5.342;2022-10-16T03:51:36;1.65;;;1.27;;
19280;SDS011;9774;52.034;5.342;2022-10-16T03:54:04;1.80;;;1.35;;
19280;SDS011;9774;52.034;5.342;2022-10-16T03:56:31;2.72;;;1.23;;
19280;SDS011;9774;52.034;5.342;2022-10-16T03:58:58;2.03;;;1.33;;
19280;SDS011;9774;52.034;5.342;2022-10-16T04:01:25;1.15;;;1.00;;
19280;SDS011;9774;52.034;5.342;2022-10-16T04:03:53;3.92;;;1.48;;
19280;SDS011;9774;52.034;5.342;2022-10-16T04:06:20;1.92;;;1.00;;
19280;SDS011;9774;52.034;5.342;2022-10-16T04:08:49;3.95;;;1.33;;
19280;SDS011;9774;52.034;5.342;2022-10-16T04:11:16;1.60;;;0.98;;
19280;SDS011;9774;52.034;5.342;2022-10-16T04:13:43;1.58;;;1.20;;
19280;SDS011;9774;52.034;5.342;2022-10-16T04:16:10;1.10;;;0.80;;
19280;SDS011;9774;52.034;5.342;2022-10-16T04:18:38;1.65;;;1.20;;
19280;SDS011;9774;52.034;5.342;2022-10-16T04:21:05;0.88;;;0.77;;
19280;SDS011;9774;52.034;5.342;2022-10-16T04:23:33;4.10;;;1.13;;
19280;SDS011;9774;52.034;5.342;2022-10-16T04:26:02;1.52;;;0.90;;
19280;SDS011;9774;52.034;5.342;2022-10-16T04:28:29;1.70;;;0.93;;
19280;SDS011;9774;52.034;5.342;2022-10-16T04:30:56;1.38;;;0.82;;
19280;SDS011;9774;52.034;5.342;2022-10-16T04:33:24;2.67;;;1.40;;
19280;SDS011;9774;52.034;5.342;2022-10-16T04:36:01;2.47;;;0.80;;
19280;SDS011;9774;52.034;5.342;2022-10-16T04:38:29;1.23;;;0.75;;
19280;SDS011;9774;52.034;5.342;2022-10-16T04:40:57;1.25;;;0.70;;
19280;SDS011;9774;52.034;5.342;2022-10-16T04:43:26;1.60;;;0.98;;
19280;SDS011;9774;52.034;5.342;2022-10-16T04:45:53;1.20;;;0.75;;
19280;SDS011;9774;52.034;5.342;2022-10-16T04:48:21;1.58;;;1.15;;
19280;SDS011;9774;52.034;5.342;2022-10-16T04:50:49;1.48;;;0.98;;
19280;SDS011;9774;52.034;5.342;2022-10-16T04:53:16;1.25;;;0.70;;
19280;SDS011;9774;52.034;5.342;2022-10-16T04:55:44;2.90;;;0.85;;
19280;SDS011;9774;52.034;5.342;2022-10-16T04:58:11;3.00;;;0.73;;
19280;SDS011;9774;52.034;5.342;2022-10-16T05:00:40;0.70;;;0.63;;
19280;SDS011;9774;52.034;5.342;2022-10-16T05:03:09;1.25;;;0.70;;
19280;SDS011;9774;52.034;5.342;2022-10-16T05:05:36;1.33;;;0.70;;
19280;SDS011;9774;52.034;5.342;2022-10-16T05:08:08;1.70;;;0.65;;
19280;SDS011;9774;52.034;5.342;2022-10-16T05:10:35;1.80;;;0.93;;
19280;SDS011;9774;52.034;5.342;2022-10-16T05:13:02;2.22;;;0.93;;
19280;SDS011;9774;52.034;5.342;2022-10-16T05:15:30;1.00;;;0.57;;
19280;SDS011;9774;52.034;5.342;2022-10-16T05:17:58;2.63;;;1.20;;
19280;SDS011;9774;52.034;5.342;2022-10-16T05:20:25;1.02;;;0.68;;
19280;SDS011;9774;52.034;5.342;2022-10-16T05:22:53;1.30;;;0.88;;
19280;SDS011;9774;52.034;5.342;2022-10-16T05:25:20;1.10;;;0.73;;
19280;SDS011;9774;52.034;5.342;2022-10-16T05:27:47;1.75;;;0.60;;
19280;SDS011;9774;52.034;5.342;2022-10-16T05:30:15;0.90;;;0.70;;
19280;SDS011;9774;52.034;5.342;2022-10-16T05:32:45;1.38;;;1.00;;
19280;SDS011;9774;52.034;5.342;2022-10-16T05:35:15;1.27;;;0.93;;
19280;SDS011;9774;52.034;5.342;2022-10-16T05:37:43;1.30;;;0.68;;
19280;SDS011;9774;52.034;5.342;2022-10-16T05:40:11;0.82;;;0.63;;
19280;SDS011;9774;52.034;5.342;2022-10-16T05:42:39;1.08;;;0.75;;
19280;SDS011;9774;52.034;5.342;2022-10-16T05:45:07;1.90;;;0.73;;
19280;SDS011;9774;52.034;5.342;2022-10-16T05:47:37;3.88;;;1.25;;
19280;SDS011;9774;52.034;5.342;2022-10-16T05:50:04;1.75;;;0.80;;
19280;SDS011;9774;52.034;5.342;2022-10-16T05:52:33;1.30;;;0.85;;
19280;SDS011;9774;52.034;5.342;2022-10-16T05:55:01;1.85;;;0.73;;
19280;SDS011;9774;52.034;5.342;2022-10-16T05:57:28;1.10;;;0.73;;
19280;SDS011;9774;52.034;5.342;2022-10-16T05:59:56;1.27;;;0.70;;
19280;SDS011;9774;52.034;5.342;2022-10-16T06:02:23;2.17;;;1.02;;
19280;SDS011;9774;52.034;5.342;2022-10-16T06:04:51;1.27;;;0.90;;
19280;SDS011;9774;52.034;5.342;2022-10-16T06:07:19;1.75;;;0.80;;
19280;SDS011;9774;52.034;5.342;2022-10-16T06:09:49;1.38;;;0.90;;
19280;SDS011;9774;52.034;5.342;2022-10-16T06:12:16;1.70;;;1.08;;
19280;SDS011;9774;52.034;5.342;2022-10-16T06:14:44;1.15;;;0.90;;
19280;SDS011;9774;52.034;5.342;2022-10-16T06:17:12;5.28;;;1.20;;
19280;SDS011;9774;52.034;5.342;2022-10-16T06:19:39;1.10;;;0.88;;
19280;SDS011;9774;52.034;5.342;2022-10-16T06:22:07;1.13;;;0.90;;
19280;SDS011;9774;52.034;5.342;2022-10-16T06:24:34;1.20;;;1.00;;
19280;SDS011;9774;52.034;5.342;2022-10-16T06:27:04;0.98;;;0.57;;
19280;SDS011;9774;52.034;5.342;2022-10-16T06:29:31;1.20;;;1.00;;
19280;SDS011;9774;52.034;5.342;2022-10-16T06:31:58;1.23;;;0.93;;
19280;SDS011;9774;52.034;5.342;2022-10-16T06:34:26;1.38;;;0.77;;
19280;SDS011;9774;52.034;5.342;2022-10-16T06:36:53;1.23;;;0.80;;
19280;SDS011;9774;52.034;5.342;2022-10-16T06:39:20;6.32;;;1.00;;
19280;SDS011;9774;52.034;5.342;2022-10-16T06:41:48;1.25;;;0.70;;
19280;SDS011;9774;52.034;5.342;2022-10-16T06:44:16;2.97;;;1.00;;
19280;SDS011;9774;52.034;5.342;2022-10-16T06:46:43;2.38;;;1.00;;
19280;SDS011;9774;52.034;5.342;2022-10-16T06:49:11;1.73;;;1.00;;
19280;SDS011;9774;52.034;5.342;2022-10-16T06:51:38;2.22;;;1.10;;
19280;SDS011;9774;52.034;5.342;2022-10-16T06:54:06;1.48;;;0.73;;
19280;SDS011;9774;52.034;5.342;2022-10-16T06:56:34;0.90;;;0.70;;
19280;SDS011;9774;52.034;5.342;2022-10-16T06:59:01;1.67;;;1.38;;
19280;SDS011;9774;52.034;5.342;2022-10-16T07:01:30;1.40;;;0.88;;
19280;SDS011;9774;52.034;5.342;2022-10-16T07:03:58;2.53;;;0.95;;
19280;SDS011;9774;52.034;5.342;2022-10-16T07:06:27;3.17;;;0.93;;
19280;SDS011;9774;52.034;5.342;2022-10-16T07:08:56;2.28;;;0.90;;
19280;SDS011;9774;52.034;5.342;2022-10-16T07:11:24;2.80;;;0.73;;
19280;SDS011;9774;52.034;5.342;2022-10-16T07:13:51;1.35;;;0.80;;
19280;SDS011;9774;52.034;5.342;2022-10-16T07:16:19;1.45;;;0.90;;
19280;SDS011;9774;52.034;5.342;2022-10-16T07:18:49;4.20;;;1.23;;
19280;SDS011;9774;52.034;5.342;2022-10-16T07:21:22;1.88;;;0.93;;
19280;SDS011;9774;52.034;5.342;2022-10-16T07:23:50;2.15;;;0.85;;
19280;SDS011;9774;52.034;5.342;2022-10-16T07:26:18;1.65;;;0.90;;
19280;SDS011;9774;52.034;5.342;2022-10-16T07:28:45;1.67;;;0.80;;
19280;SDS011;9774;52.034;5.342;2022-10-16T07:31:14;1.95;;;0.95;;
19280;SDS011;9774;52.034;5.342;2022-10-16T07:33:42;1.45;;;0.82;;
19280;SDS011;9774;52.034;5.342;2022-10-16T07:36:13;1.80;;;1.05;;
19280;SDS011;9774;52.034;5.342;2022-10-16T07:38:41;3.00;;;1.10;;
19280;SDS011;9774;52.034;5.342;2022-10-16T07:41:09;1.30;;;0.93;;
19280;SDS011;9774;52.034;5.342;2022-10-16T07:43:38;2.75;;;1.25;;
19280;SDS011;9774;52.034;5.342;2022-10-16T07:46:06;1.88;;;0.90;;
19280;SDS011;9774;52.034;5.342;2022-10-16T07:48:34;3.45;;;1.15;;
19280;SDS011;9774;52.034;5.342;2022-10-16T07:51:02;1.70;;;1.25;;
19280;SDS011;9774;52.034;5.342;2022-10-16T07:53:32;1.77;;;1.00;;
19280;SDS011;9774;52.034;5.342;2022-10-16T07:56:00;2.47;;;1.30;;
19280;SDS011;9774;52.034;5.342;2022-10-16T07:58:29;1.77;;;0.93;;
19280;SDS011;9774;52.034;5.342;2022-10-16T08:00:56;2.20;;;1.00;;
19280;SDS011;9774;52.034;5.342;2022-10-16T08:03:24;1.27;;;0.88;;
19280;SDS011;9774;52.034;5.342;2022-10-16T08:05:52;1.83;;;0.85;;
19280;SDS011;9774;52.034;5.342;2022-10-16T08:08:19;3.35;;;0.98;;
19280;SDS011;9774;52.034;5.342;2022-10-16T08:10:48;2.13;;;1.10;;
19280;SDS011;9774;52.034;5.342;2022-10-16T08:13:15;4.65;;;1.02;;
19280;SDS011;9774;52.034;5.342;2022-10-16T08:15:42;1.02;;;0.80;;
19280;SDS011;9774;52.034;5.342;2022-10-16T08:18:11;2.33;;;1.35;;
19280;SDS011;9774;52.034;5.342;2022-10-16T08:20:40;1.70;;;1.08;;
19280;SDS011;9774;52.034;5.342;2022-10-16T08:23:08;2.58;;;1.08;;
19280;SDS011;9774;52.034;5.342;2022-10-16T08:25:36;7.05;;;0.93;;
19280;SDS011;9774;52.034;5.342;2022-10-16T08:28:05;2.83;;;1.30;;
19280;SDS011;9774;52.034;5.342;2022-10-16T08:30:34;3.33;;;1.08;;
19280;SDS011;9774;52.034;5.342;2022-10-16T08:33:02;2.22;;;0.75;;
19280;SDS011;9774;52.034;5.342;2022-10-16T08:35:29;1.15;;;1.05;;
19280;SDS011;9774;52.034;5.342;2022-10-16T08:37:56;1.15;;;0.80;;
19280;SDS011;9774;52.034;5.342;2022-10-16T08:40:24;1.58;;;0.73;;
19280;SDS011;9774;52.034;5.342;2022-10-16T08:42:57;2.85;;;1.02;;
19280;SDS011;9774;52.034;5.342;2022-10-16T08:45:46;1.58;;;1.40;;
19280;SDS011;9774;52.034;5.342;2022-10-16T08:48:24;4.28;;;1.00;;
19280;SDS011;9774;52.034;5.342;2022-10-16T08:50:55;1.65;;;0.98;;
19280;SDS011;9774;52.034;5.342;2022-10-16T08:53:24;2.63;;;0.90;;
19280;SDS011;9774;52.034;5.342;2022-10-16T08:55:55;1.52;;;0.85;;
19280;SDS011;9774;52.034;5.342;2022-10-16T08:58:26;1.05;;;0.75;;
19280;SDS011;9774;52.034;5.342;2022-10-16T09:00:57;1.35;;;0.77;;
19280;SDS011;9774;52.034;5.342;2022-10-16T09:03:36;3.38;;;0.95;;
19280;SDS011;9774;52.034;5.342;2022-10-16T09:06:21;2.50;;;0.88;;
19280;SDS011;9774;52.034;5.342;2022-10-16T09:09:02;1.77;;;1.00;;
19280;SDS011;9774;52.034;5.342;2022-10-16T09:11:41;2.88;;;0.88;;
19280;SDS011;9774;52.034;5.342;2022-10-16T09:14:18;2.30;;;0.90;;
19280;SDS011;9774;52.034;5.342;2022-10-16T09:17:06;3.97;;;1.35;;
19280;SDS011;9774;52.034;5.342;2022-10-16T09:19:53;2.38;;;0.77;;
19280;SDS011;9774;52.034;5.342;2022-10-16T09:22:27;3.67;;;0.80;;
19280;SDS011;9774;52.034;5.342;2022-10-16T09:24:55;1.30;;;0.90;;
19280;SDS011;9774;52.034;5.342;2022-10-16T09:27:30;3.08;;;1.20;;
19280;SDS011;9774;52.034;5.342;2022-10-16T09:29:58;2.42;;;1.00;;
19280;SDS011;9774;52.034;5.342;2022-10-16T09:32:27;2.28;;;0.85;;
19280;SDS011;9774;52.034;5.342;2022-10-16T09:34:56;4.47;;;1.17;;
19280;SDS011;9774;52.034;5.342;2022-10-16T09:37:23;3.78;;;1.17;;
19280;SDS011;9774;52.034;5.342;2022-10-16T09:39:52;2.78;;;0.98;;
19280;SDS011;9774;52.034;5.342;2022-10-16T09:42:20;4.60;;;0.90;;
19280;SDS011;9774;52.034;5.342;2022-10-16T09:44:51;1.98;;;0.80;;
19280;SDS011;9774;52.034;5.342;2022-10-16T09:47:19;2.13;;;1.00;;
19280;SDS011;9774;52.034;5.342;2022-10-16T09:49:51;3.08;;;1.00;;
19280;SDS011;9774;52.034;5.342;2022-10-16T09:52:20;4.35;;;0.90;;
19280;SDS011;9774;52.034;5.342;2022-10-16T09:54:48;4.70;;;1.15;;
19280;SDS011;9774;52.034;5.342;2022-10-16T09:57:17;6.75;;;1.77;;
19280;SDS011;9774;52.034;5.342;2022-10-16T09:59:45;3.13;;;1.15;;
19280;SDS011;9774;52.034;5.342;2022-10-16T10:02:14;4.97;;;1.13;;
19280;SDS011;9774;52.034;5.342;2022-10-16T10:04:44;2.30;;;0.85;;
19280;SDS011;9774;52.034;5.342;2022-10-16T10:07:20;3.92;;;0.90;;
19280;SDS011;9774;52.034;5.342;2022-10-16T10:09:51;4.05;;;1.63;;
19280;SDS011;9774;52.034;5.342;2022-10-16T10:12:20;6.90;;;1.05;;
19280;SDS011;9774;52.034;5.342;2022-10-16T10:14:49;4.68;;;0.93;;
19280;SDS011;9774;52.034;5.342;2022-10-16T10:17:18;5.25;;;1.10;;
19280;SDS011;9774;52.034;5.342;2022-10-16T10:19:51;5.80;;;1.20;;
19280;SDS011;9774;52.034;5.342;2022-10-16T10:22:28;4.68;;;1.38;;
19280;SDS011;9774;52.034;5.342;2022-10-16T10:25:07;4.93;;;0.90;;
19280;SDS011;9774;52.034;5.342;2022-10-16T10:28:00;5.32;;;0.82;;
19280;SDS011;9774;52.034;5.342;2022-10-16T10:30:38;2.40;;;0.68;;
19280;SDS011;9774;52.034;5.342;2022-10-16T10:33:14;4.18;;;1.25;;
19280;SDS011;9774;52.034;5.342;2022-10-16T10:35:49;2.28;;;1.05;;
19280;SDS011;9774;52.034;5.342;2022-10-16T10:38:25;5.82;;;1.73;;
19280;SDS011;9774;52.034;5.342;2022-10-16T10:41:07;5.43;;;1.30;;
19280;SDS011;9774;52.034;5.342;2022-10-16T10:43:52;2.28;;;0.75;;
19280;SDS011;9774;52.034;5.342;2022-10-16T10:46:31;2.60;;;0.75;;
19280;SDS011;9774;52.034;5.342;2022-10-16T10:49:13;3.33;;;0.82;;
19280;SDS011;9774;52.034;5.342;2022-10-16T10:51:52;4.32;;;1.60;;
19280;SDS011;9774;52.034;5.342;2022-10-16T10:54:28;5.22;;;1.02;;
19280;SDS011;9774;52.034;5.342;2022-10-16T10:57:07;2.88;;;0.82;;
19280;SDS011;9774;52.034;5.342;2022-10-16T11:02:34;1.10;;;0.40;;
19280;SDS011;9774;52.034;5.342;2022-10-16T11:07:57;4.45;;;0.95;;
19280;SDS011;9774;52.034;5.342;2022-10-16T11:10:28;6.70;;;1.52;;
19280;SDS011;9774;52.034;5.342;2022-10-16T11:13:03;2.38;;;0.95;;
19280;SDS011;9774;52.034;5.342;2022-10-16T11:15:37;3.33;;;0.73;;
19280;SDS011;9774;52.034;5.342;2022-10-16T11:18:08;2.38;;;0.90;;
19280;SDS011;9774;52.034;5.342;2022-10-16T11:20:40;2.53;;;0.75;;
19280;SDS011;9774;52.034;5.342;2022-10-16T11:23:14;3.25;;;1.25;;
19280;SDS011;9774;52.034;5.342;2022-10-16T11:25:48;2.70;;;0.73;;
19280;SDS011;9774;52.034;5.342;2022-10-16T11:28:17;2.47;;;0.80;;
19280;SDS011;9774;52.034;5.342;2022-10-16T11:30:51;3.63;;;1.00;;
19280;SDS011;9774;52.034;5.342;2022-10-16T11:33:25;2.25;;;0.82;;
19280;SDS011;9774;52.034;5.342;2022-10-16T11:35:59;3.53;;;1.00;;
19280;SDS011;9774;52.034;5.342;2022-10-16T11:38:31;3.92;;;0.90;;
19280;SDS011;9774;52.034;5.342;2022-10-16T11:41:12;7.43;;;1.00;;
19280;SDS011;9774;52.034;5.342;2022-10-16T11:43:45;4.20;;;1.00;;
19280;SDS011;9774;52.034;5.342;2022-10-16T11:46:20;2.72;;;0.52;;
19280;SDS011;9774;52.034;5.342;2022-10-16T11:48:51;9.07;;;0.95;;
19280;SDS011;9774;52.034;5.342;2022-10-16T11:51:29;2.65;;;0.70;;
19280;SDS011;9774;52.034;5.342;2022-10-16T11:54:02;5.78;;;0.90;;
19280;SDS011;9774;52.034;5.342;2022-10-16T11:56:38;5.72;;;1.38;;
19280;SDS011;9774;52.034;5.342;2022-10-16T11:59:07;3.15;;;1.20;;
19280;SDS011;9774;52.034;5.342;2022-10-16T12:01:43;3.92;;;0.90;;
19280;SDS011;9774;52.034;5.342;2022-10-16T12:04:15;3.58;;;0.60;;
19280;SDS011;9774;52.034;5.342;2022-10-16T12:06:48;3.45;;;0.68;;
19280;SDS011;9774;52.034;5.342;2022-10-16T12:09:20;5.93;;;1.10;;
19280;SDS011;9774;52.034;5.342;2022-10-16T12:11:52;6.07;;;1.10;;
19280;SDS011;9774;52.034;5.342;2022-10-16T12:14:35;1.98;;;0.52;;
19280;SDS011;9774;52.034;5.342;2022-10-16T12:19:58;1.77;;;0.43;;
19280;SDS011;9774;52.034;5.342;2022-10-16T12:22:27;2.65;;;0.85;;
19280;SDS011;9774;52.034;5.342;2022-10-16T12:24:56;3.45;;;0.68;;
19280;SDS011;9774;52.034;5.342;2022-10-16T12:27:27;3.00;;;0.75;;
19280;SDS011;9774;52.034;5.342;2022-10-16T12:29:56;2.80;;;0.63;;
19280;SDS011;9774;52.034;5.342;2022-10-16T12:32:27;6.22;;;0.82;;
19280;SDS011;9774;52.034;5.342;2022-10-16T12:34:57;3.70;;;0.57;;
19280;SDS011;9774;52.034;5.342;2022-10-16T12:37:26;5.38;;;1.33;;
19280;SDS011;9774;52.034;5.342;2022-10-16T12:39:57;4.00;;;0.70;;
19280;SDS011;9774;52.034;5.342;2022-10-16T12:42:33;4.20;;;0.65;;
19280;SDS011;9774;52.034;5.342;2022-10-16T12:45:01;4.03;;;1.13;;
19280;SDS011;9774;52.034;5.342;2022-10-16T12:47:47;7.30;;;0.90;;
19280;SDS011;9774;52.034;5.342;2022-10-16T12:50:23;5.43;;;0.63;;
19280;SDS011;9774;52.034;5.342;2022-10-16T12:52:56;10.23;;;0.82;;
19280;SDS011;9774;52.034;5.342;2022-10-16T12:55:24;1.80;;;0.60;;
19280;SDS011;9774;52.034;5.342;2022-10-16T13:00:48;5.38;;;0.93;;
19280;SDS011;9774;52.034;5.342;2022-10-16T13:03:35;4.18;;;0.60;;
19280;SDS011;9774;52.034;5.342;2022-10-16T13:06:19;5.25;;;1.00;;
19280;SDS011;9774;52.034;5.342;2022-10-16T13:09:08;4.97;;;0.80;;
19280;SDS011;9774;52.034;5.342;2022-10-16T13:12:01;4.50;;;0.73;;
19280;SDS011;9774;52.034;5.342;2022-10-16T13:17:47;3.80;;;0.60;;
19280;SDS011;9774;52.034;5.342;2022-10-16T13:20:25;2.38;;;0.80;;
19280;SDS011;9774;52.034;5.342;2022-10-16T13:23:02;3.13;;;0.90;;
19280;SDS011;9774;52.034;5.342;2022-10-16T13:25:38;3.15;;;0.70;;
19280;SDS011;9774;52.034;5.342;2022-10-16T13:28:13;1.73;;;0.70;;
19280;SDS011;9774;52.034;5.342;2022-10-16T13:30:50;2.70;;;0.77;;
19280;SDS011;9774;52.034;5.342;2022-10-16T13:33:19;1.73;;;0.68;;
19280;SDS011;9774;52.034;5.342;2022-10-16T13:35:52;2.38;;;0.90;;
19280;SDS011;9774;52.034;5.342;2022-10-16T13:38:21;3.47;;;0.90;;
19280;SDS011;9774;52.034;5.342;2022-10-16T13:40:51;2.92;;;0.80;;
19280;SDS011;9774;52.034;5.342;2022-10-16T13:43:21;4.97;;;1.05;;
19280;SDS011;9774;52.034;5.342;2022-10-16T13:45:56;3.50;;;0.95;;
19280;SDS011;9774;52.034;5.342;2022-10-16T13:48:27;2.15;;;0.90;;
19280;SDS011;9774;52.034;5.342;2022-10-16T13:50:58;4.20;;;0.77;;
19280;SDS011;9774;52.034;5.342;2022-10-16T13:53:31;2.72;;;0.90;;
19280;SDS011;9774;52.034;5.342;2022-10-16T13:56:01;5.07;;;1.17;;
19280;SDS011;9774;52.034;5.342;2022-10-16T13:58:30;3.70;;;0.82;;
19280;SDS011;9774;52.034;5.342;2022-10-16T14:00:59;4.15;;;0.60;;
19280;SDS011;9774;52.034;5.342;2022-10-16T14:03:28;6.50;;;0.80;;
19280;SDS011;9774;52.034;5.342;2022-10-16T14:05:59;3.38;;;0.85;;
19280;SDS011;9774;52.034;5.342;2022-10-16T14:08:28;2.92;;;0.77;;
19280;SDS011;9774;52.034;5.342;2022-10-16T14:10:57;3.40;;;0.70;;
19280;SDS011;9774;52.034;5.342;2022-10-16T14:13:29;5.70;;;0.93;;
19280;SDS011;9774;52.034;5.342;2022-10-16T14:16:00;3.50;;;1.58;;
19280;SDS011;9774;52.034;5.342;2022-10-16T14:18:32;1.55;;;0.50;;
19280;SDS011;9774;52.034;5.342;2022-10-16T14:21:04;5.47;;;1.08;;
19280;SDS011;9774;52.034;5.342;2022-10-16T14:23:33;3.60;;;0.50;;
19280;SDS011;9774;52.034;5.342;2022-10-16T14:26:12;5.88;;;0.52;;
19280;SDS011;9774;52.034;5.342;2022-10-16T14:28:41;2.85;;;1.10;;
19280;SDS011;9774;52.034;5.342;2022-10-16T14:31:27;9.93;;;0.95;;
19280;SDS011;9774;52.034;5.342;2022-10-16T14:33:56;5.25;;;0.80;;
19280;SDS011;9774;52.034;5.342;2022-10-16T14:36:25;2.80;;;0.60;;
19280;SDS011;9774;52.034;5.342;2022-10-16T14:38:56;2.72;;;0.50;;
19280;SDS011;9774;52.034;5.342;2022-10-16T14:41:27;9.20;;;0.80;;
19280;SDS011;9774;52.034;5.342;2022-10-16T14:43:56;2.97;;;0.40;;
19280;SDS011;9774;52.034;5.342;2022-10-16T14:46:30;5.93;;;1.50;;
19280;SDS011;9774;52.034;5.342;2022-10-16T14:49:02;4.13;;;0.93;;
19280;SDS011;9774;52.034;5.342;2022-10-16T14:51:40;4.07;;;0.85;;
19280;SDS011;9774;52.034;5.342;2022-10-16T14:54:09;3.22;;;0.57;;
19280;SDS011;9774;52.034;5.342;2022-10-16T14:56:42;3.40;;;1.15;;
19280;SDS011;9774;52.034;5.342;2022-10-16T14:59:16;9.25;;;1.17;;
19280;SDS011;9774;52.034;5.342;2022-10-16T15:01:46;4.60;;;0.95;;
19280;SDS011;9774;52.034;5.342;2022-10-16T15:04:14;5.70;;;0.70;;
19280;SDS011;9774;52.034;5.342;2022-10-16T15:06:41;6.07;;;1.60;;
19280;SDS011;9774;52.034;5.342;2022-10-16T15:09:08;2.03;;;0.73;;
19280;SDS011;9774;52.034;5.342;2022-10-16T15:11:36;6.07;;;1.35;;
19280;SDS011;9774;52.034;5.342;2022-10-16T15:14:03;3.50;;;1.08;;
19280;SDS011;9774;52.034;5.342;2022-10-16T15:16:32;4.95;;;0.98;;
19280;SDS011;9774;52.034;5.342;2022-10-16T15:19:00;4.15;;;0.65;;
19280;SDS011;9774;52.034;5.342;2022-10-16T15:21:31;4.93;;;0.80;;
19280;SDS011;9774;52.034;5.342;2022-10-16T15:23:59;2.95;;;0.85;;
19280;SDS011;9774;52.034;5.342;2022-10-16T15:26:27;3.03;;;0.80;;
19280;SDS011;9774;52.034;5.342;2022-10-16T15:28:55;3.08;;;0.50;;
19280;SDS011;9774;52.034;5.342;2022-10-16T15:31:23;4.95;;;0.65;;
19280;SDS011;9774;52.034;5.342;2022-10-16T15:33:50;9.05;;;1.30;;
19280;SDS011;9774;52.034;5.342;2022-10-16T15:36:28;3.47;;;1.02;;
19280;SDS011;9774;52.034;5.342;2022-10-16T15:38:59;4.68;;;0.88;;